22:25
Airports
History
Links
Donate
Help keep this website running!
PayPal
Bitcoin
This page is community maintained. The information is intended for PC simulator navigation or reference.
Always use approved charts for navigation.
CYGT
Igloolik
Igloolik (CYGT)
Igloolik, Nunavut, Canada
4
Lat/Lng:69° 21' 53.34" N / 81° 49' 1.51" W
69.364817 / -81.817087
Elevation:98'ft / 30mMSL
ID / ICAO:CYGT
Runways:1
Longest:15-33
Dirt 1,368m / 4,488ft
Beacon:White-Green
Nearby Weather22:00 GMT 2017-09-19
Nearby weather at CYUX, Hall Beach located 43.1 nautical miles from CYGT
Altimeter: 30.04
Visibility: 15.0 statute miles
Wind: 16 knots (from 360°)
Temp: 3°c / 37°f
Humidity: %

METAR: CYUX 192200Z 36016KT 15SM FEW030 FEW100 03/M00 A3004 RMK SC1AC1 SC TR AC TR SLP175

(Powered by phpweather)
Nearby VORs <50NM
Nearby NDBs
Runway 15 / 33
Dimensions:1367.9 x 29.9m 4488' x 98'ft
Surface:Dirt
Edge Lights:Medium intensity
Runway 15 [A]Runway 33 [B]
Heading:145°TH 325°TH
Lat:
Lng:
69° 22' 11.68"N
81° 49' 37.07"W
69° 21' 35.01"N
81° 48' 25.95"W
User Notes and Comments
69° 21' 53.34" N / 81° 49' 1.51" W
Distance To
Airport ID:
Nearby Airports
4 Hall Beach 43.1 NM
CYUX ( WX ) SSE 160°
4 KUGAARUK 206.3 NM
CYBB WSW 253°
4 REPULSE BAY 227.2 NM
CYUT SSW 210°
4 POND INLET 244.9 NM
CYIO ( WX ) NNE 20°
4 NANISIVIK 257.5 NM
CYSR NNW 346°
4 Arctic Bay 261.5 NM
CJX7 NNW 344°
4 TALOYOAK 284.9 NM
CYYH W 272°
VFR Chart
Flight Planning at SkyVector.com